createdAt,value
2023-01-25T00:01:23.149Z,4.11
2023-01-25T00:04:08.109Z,4.13
2023-01-25T00:06:53.464Z,4.14
2023-01-25T00:09:38.692Z,4.26
2023-01-25T00:12:24.118Z,4.22
2023-01-25T00:15:09.911Z,4.31
2023-01-25T00:17:55.555Z,4.35
2023-01-25T00:20:40.514Z,4.04
2023-01-25T00:23:25.687Z,4.25
2023-01-25T00:26:11.313Z,4.22
2023-01-25T00:28:56.443Z,4.23
2023-01-25T00:31:47.648Z,3.98
2023-01-25T00:34:44.077Z,4.04
2023-01-25T00:37:36.483Z,4.12
2023-01-25T00:40:21.347Z,4.12
2023-01-25T00:43:06.425Z,4.01
2023-01-25T00:45:51.676Z,4.11
2023-01-25T00:48:37.079Z,4.25
2023-01-25T00:51:22.689Z,4.27
2023-01-25T00:54:07.569Z,4.17
2023-01-25T00:56:53.851Z,4.20
2023-01-25T00:59:38.781Z,4.24
2023-01-25T01:02:24.046Z,4.18
2023-01-25T01:05:09.952Z,4.14
2023-01-25T01:07:56.105Z,4.04
2023-01-25T01:10:44.442Z,4.03
2023-01-25T01:13:30.448Z,4.07
2023-01-25T01:16:15.538Z,4.06
2023-01-25T01:19:01.178Z,4.04
2023-01-25T01:21:46.285Z,3.91
2023-01-25T01:24:32.142Z,4.03
2023-01-25T01:27:17.487Z,3.96
2023-01-25T01:30:02.701Z,3.79
2023-01-25T01:32:48.076Z,3.90
2023-01-25T01:35:33.308Z,3.94
2023-01-25T01:38:18.594Z,3.94
2023-01-25T01:41:03.785Z,3.85
2023-01-25T01:43:49.689Z,3.97
2023-01-25T01:46:37.414Z,4.00
2023-01-25T01:49:29.174Z,3.99
2023-01-25T01:52:17.144Z,3.92
2023-01-25T01:55:11.732Z,3.94
2023-01-25T01:57:59.393Z,3.98
2023-01-25T02:00:44.441Z,3.88
2023-01-25T02:03:30.522Z,3.89
2023-01-25T02:06:24.641Z,3.93
2023-01-25T02:09:09.714Z,4.00
2023-01-25T02:11:57.410Z,3.86
2023-01-25T02:14:48.384Z,3.93
2023-01-25T02:17:38.853Z,3.96
2023-01-25T02:20:37.322Z,3.90
2023-01-25T02:23:22.324Z,3.89
2023-01-25T02:26:07.989Z,3.61
2023-01-25T02:28:59.635Z,3.81
2023-01-25T02:31:47.159Z,3.79
2023-01-25T02:34:32.710Z,3.68
2023-01-25T02:37:17.820Z,3.64
2023-01-25T02:40:05.662Z,3.71
2023-01-25T02:42:50.814Z,3.86
2023-01-25T02:45:35.702Z,3.83
2023-01-25T02:48:20.661Z,3.80
2023-01-25T02:51:09.924Z,3.80
2023-01-25T02:53:56.094Z,3.79
2023-01-25T02:56:41.183Z,3.74
2023-01-25T02:59:26.489Z,3.72
2023-01-25T03:02:11.780Z,3.79
2023-01-25T03:04:56.977Z,3.79
2023-01-25T03:07:42.328Z,3.70
2023-01-25T03:10:27.686Z,3.76
2023-01-25T03:13:13.648Z,3.74
2023-01-25T03:16:11.112Z,3.73
2023-01-25T03:18:56.460Z,3.73
2023-01-25T03:21:41.838Z,3.73
2023-01-25T03:24:27.144Z,3.77
2023-01-25T03:27:14.079Z,3.82
2023-01-25T03:29:59.238Z,3.71
2023-01-25T03:32:44.250Z,3.75
2023-01-25T03:35:29.190Z,3.76
2023-01-25T03:38:14.281Z,3.77
2023-01-25T03:40:59.252Z,3.74
2023-01-25T03:43:44.392Z,3.72
2023-01-25T03:46:29.363Z,3.54
2023-01-25T03:49:14.266Z,3.68
2023-01-25T03:51:59.136Z,3.58
2023-01-25T03:54:44.244Z,3.73
2023-01-25T03:57:29.335Z,3.74
2023-01-25T04:00:14.647Z,3.65
2023-01-25T04:02:59.694Z,3.61
2023-01-25T04:05:44.617Z,3.59
2023-01-25T04:08:29.922Z,3.39
2023-01-25T04:11:14.988Z,3.51
2023-01-25T04:14:00.048Z,3.46
2023-01-25T04:16:45.460Z,3.50
2023-01-25T04:19:30.581Z,3.52
2023-01-25T04:22:16.550Z,3.44
2023-01-25T04:25:01.653Z,3.48
2023-01-25T04:27:46.886Z,3.52
2023-01-25T04:30:32.087Z,3.53
2023-01-25T04:33:17.736Z,3.52
2023-01-25T04:36:03.106Z,3.46
2023-01-25T04:38:51.527Z,3.50
2023-01-25T04:41:36.575Z,3.47
2023-01-25T04:44:21.680Z,3.41
2023-01-25T04:47:06.795Z,3.29
2023-01-25T04:49:51.818Z,3.27
2023-01-25T04:52:36.765Z,3.44
2023-01-25T04:55:22.276Z,3.31
2023-01-25T04:58:07.550Z,3.50
2023-01-25T05:00:52.513Z,3.50
2023-01-25T05:03:37.692Z,3.47
2023-01-25T05:06:23.143Z,3.38
2023-01-25T05:09:09.964Z,3.42
2023-01-25T05:11:55.233Z,3.42
2023-01-25T05:14:40.543Z,3.39
2023-01-25T05:17:25.787Z,3.39
2023-01-25T05:20:11.626Z,3.34
2023-01-25T05:22:56.890Z,3.33
2023-01-25T05:26:01.797Z,3.36
2023-01-25T05:28:47.126Z,3.09
2023-01-25T05:31:31.896Z,3.17
2023-01-25T05:34:16.987Z,3.21
2023-01-25T05:37:02.991Z,3.07
2023-01-25T05:39:48.175Z,3.12
2023-01-25T05:42:33.544Z,3.12
2023-01-25T05:45:18.787Z,3.13
2023-01-25T05:48:04.202Z,3.03
2023-01-25T05:50:49.533Z,3.09
2023-01-25T05:53:34.693Z,3.12
2023-01-25T05:56:20.017Z,2.97
2023-01-25T05:59:05.048Z,3.04
2023-01-25T06:01:50.325Z,3.05
2023-01-25T06:04:35.451Z,3.05
2023-01-25T06:07:20.410Z,3.03
2023-01-25T06:10:05.840Z,2.90
2023-01-25T06:12:51.209Z,2.92
2023-01-25T06:15:36.320Z,2.92
2023-01-25T06:18:22.514Z,2.88
2023-01-25T06:21:07.568Z,2.86
2023-01-25T06:23:52.831Z,2.90
2023-01-25T06:26:38.033Z,2.87
2023-01-25T06:29:23.033Z,2.88
2023-01-25T06:32:07.975Z,2.76
2023-01-25T06:34:53.208Z,2.84
2023-01-25T06:37:38.339Z,2.73
2023-01-25T06:40:24.072Z,2.74
2023-01-25T06:43:10.036Z,2.67
2023-01-25T06:46:00.552Z,2.64
2023-01-25T06:48:45.910Z,2.71
2023-01-25T06:51:31.246Z,2.67
2023-01-25T06:54:16.393Z,2.59
2023-01-25T06:57:01.620Z,2.62
2023-01-25T06:59:46.577Z,2.65
2023-01-25T07:02:31.724Z,2.75
2023-01-25T07:05:17.098Z,2.73
2023-01-25T07:08:02.452Z,2.56
2023-01-25T07:10:56.855Z,2.60
2023-01-25T07:13:43.398Z,2.60
2023-01-25T07:16:28.489Z,2.58
2023-01-25T07:19:13.667Z,2.45
2023-01-25T07:21:58.863Z,2.52
2023-01-25T07:24:49.839Z,2.51
2023-01-25T07:27:35.253Z,2.48
2023-01-25T07:30:21.698Z,2.42
2023-01-25T07:33:06.917Z,2.46
2023-01-25T07:35:51.848Z,2.50
2023-01-25T07:38:37.203Z,2.56
2023-01-25T07:41:23.471Z,2.57
2023-01-25T07:44:10.239Z,2.64
2023-01-25T07:46:55.222Z,2.60
2023-01-25T07:49:40.675Z,2.55
2023-01-25T07:52:26.545Z,2.55
2023-01-25T07:55:12.051Z,2.30
2023-01-25T07:57:57.526Z,2.52
2023-01-25T08:00:42.657Z,2.52
2023-01-25T08:03:27.584Z,2.50
2023-01-25T08:06:13.494Z,2.46
2023-01-25T08:08:59.615Z,2.52
2023-01-25T08:11:44.889Z,2.54
2023-01-25T08:14:30.116Z,2.72
2023-01-25T08:26:36.273Z,2.74
2023-01-25T08:29:12.810Z,2.68
2023-01-25T08:31:57.794Z,2.71
2023-01-25T08:34:42.991Z,2.65
2023-01-25T08:37:29.635Z,2.62
2023-01-25T08:40:14.734Z,2.62
2023-01-25T08:42:59.811Z,2.54
2023-01-25T08:45:45.253Z,2.57
2023-01-25T08:48:30.390Z,2.57
2023-01-25T08:51:16.445Z,2.60
2023-01-25T08:54:06.037Z,2.57
2023-01-25T08:56:52.012Z,2.59
2023-01-25T08:59:37.106Z,2.61
2023-01-25T09:02:22.166Z,2.60
2023-01-25T09:05:07.627Z,2.60
2023-01-25T09:07:52.937Z,2.56
2023-01-25T09:10:37.969Z,2.33
2023-01-25T09:13:23.248Z,2.53
2023-01-25T09:16:11.213Z,2.49
2023-01-25T09:19:02.513Z,2.44
2023-01-25T09:21:48.341Z,2.45
2023-01-25T09:24:37.013Z,2.56
2023-01-25T09:27:22.328Z,2.60
2023-01-25T09:30:16.627Z,2.54
2023-01-25T09:33:04.900Z,2.48
2023-01-25T09:35:49.953Z,2.54
2023-01-25T09:38:35.626Z,2.53
2023-01-25T09:41:39.581Z,2.61
2023-01-25T09:44:36.770Z,2.68
2023-01-25T09:47:44.950Z,2.69
2023-01-25T09:50:45.377Z,2.57
2023-01-25T09:53:35.661Z,2.48
2023-01-25T09:56:29.468Z,2.63
2023-01-25T09:59:19.885Z,2.61
2023-01-25T10:02:28.266Z,2.58
2023-01-25T10:05:21.705Z,2.45
2023-01-25T10:08:19.543Z,2.72
2023-01-25T10:11:14.942Z,2.72
2023-01-25T10:14:00.518Z,2.63
2023-01-25T10:16:50.070Z,2.67
2023-01-25T10:19:53.782Z,2.72
2023-01-25T10:22:51.369Z,2.69
2023-01-25T10:25:46.588Z,2.95
2023-01-25T10:28:54.410Z,2.86
2023-01-25T10:31:54.107Z,2.87
2023-01-25T10:34:55.827Z,2.67
2023-01-25T10:37:41.970Z,2.64
2023-01-25T10:40:40.728Z,2.68
2023-01-25T10:43:25.900Z,2.80
2023-01-25T10:46:25.502Z,2.74
2023-01-25T10:49:22.858Z,2.86
2023-01-25T10:52:26.300Z,2.86
2023-01-25T10:55:18.516Z,2.92
2023-01-25T10:58:03.402Z,3.03
2023-01-25T11:00:51.836Z,2.97
2023-01-25T11:03:44.599Z,2.88
2023-01-25T11:06:37.146Z,2.96
2023-01-25T11:09:22.252Z,2.90
2023-01-25T11:12:18.476Z,3.00
2023-01-25T11:15:24.666Z,3.03
2023-01-25T11:18:18.686Z,3.00
2023-01-25T11:21:11.514Z,3.02
2023-01-25T11:24:07.207Z,2.98
2023-01-25T11:27:22.698Z,2.96
2023-01-25T11:30:21.631Z,3.05
2023-01-25T11:33:11.701Z,3.13
2023-01-25T11:36:14.035Z,3.19
2023-01-25T11:39:20.804Z,3.25
2023-01-25T11:42:08.736Z,3.24
2023-01-25T11:45:19.333Z,3.13
2023-01-25T11:48:26.076Z,2.97
2023-01-25T11:51:25.628Z,2.88
2023-01-25T11:54:25.738Z,3.11
2023-01-25T11:57:20.656Z,2.96
2023-01-25T12:00:24.129Z,3.11
2023-01-25T12:03:36.287Z,3.11
2023-01-25T12:06:30.539Z,3.47
2023-01-25T12:09:39.476Z,3.25
2023-01-25T12:12:55.646Z,3.35
2023-01-25T12:15:49.965Z,3.28
2023-01-25T12:18:49.183Z,3.29
2023-01-25T12:21:52.779Z,3.13
2023-01-25T12:25:20.703Z,3.24
2023-01-25T12:28:21.073Z,3.27
2023-01-25T12:31:32.236Z,3.38
2023-01-25T12:34:26.465Z,3.33
2023-01-25T12:37:27.952Z,3.21
2023-01-25T12:40:18.385Z,3.34
2023-01-25T12:43:05.329Z,3.35
2023-01-25T12:45:53.006Z,3.29
2023-01-25T12:48:43.222Z,3.38
2023-01-25T12:51:35.856Z,3.60
2023-01-25T12:54:32.353Z,3.64
2023-01-25T12:57:29.820Z,3.52
2023-01-25T13:00:18.906Z,3.48
2023-01-25T13:03:03.827Z,3.33
2023-01-25T13:05:57.280Z,3.36
2023-01-25T13:09:03.864Z,3.38
2023-01-25T13:11:49.744Z,3.42
2023-01-25T13:14:40.330Z,3.41
2023-01-25T13:17:34.814Z,3.54
2023-01-25T13:20:41.895Z,3.60
2023-01-25T13:23:34.798Z,3.65
2023-01-25T13:26:25.549Z,3.77
2023-01-25T13:29:31.668Z,3.71
2023-01-25T13:32:25.834Z,3.79
2023-01-25T13:35:31.388Z,3.64
2023-01-25T13:38:28.814Z,3.83
2023-01-25T13:41:16.901Z,3.91
2023-01-25T13:44:28.241Z,3.75
2023-01-25T13:47:17.608Z,3.86
2023-01-25T13:50:18.581Z,4.03
2023-01-25T13:53:25.129Z,4.06
2023-01-25T13:56:29.374Z,4.16
2023-01-25T13:59:28.136Z,4.03
2023-01-25T14:02:21.803Z,4.07
2023-01-25T14:05:17.940Z,4.00
2023-01-25T14:08:03.116Z,4.12
2023-01-25T14:10:50.047Z,4.16
2023-01-25T14:13:35.007Z,4.29
2023-01-25T14:16:20.321Z,4.23
2023-01-25T14:19:22.461Z,4.08
2023-01-25T14:22:19.995Z,4.15
2023-01-25T14:25:07.130Z,4.09
2023-01-25T14:27:54.781Z,4.25
2023-01-25T14:31:01.496Z,4.16
2023-01-25T14:33:48.120Z,4.10
2023-01-25T14:36:34.670Z,4.18
2023-01-25T14:39:29.079Z,4.18
2023-01-25T14:42:16.277Z,4.33
2023-01-25T14:45:01.162Z,4.35
2023-01-25T14:47:58.317Z,4.20
2023-01-25T14:50:44.543Z,4.11
2023-01-25T14:53:30.862Z,4.02
2023-01-25T14:56:30.788Z,4.20
2023-01-25T14:59:27.944Z,4.19
2023-01-25T15:02:36.005Z,4.10
2023-01-25T15:05:33.067Z,4.32
2023-01-25T15:08:36.952Z,4.35
2023-01-25T15:11:48.929Z,4.17
2023-01-25T15:14:33.925Z,4.14
2023-01-25T15:17:45.621Z,4.33
2023-01-25T15:20:36.784Z,4.16
2023-01-25T15:23:25.521Z,4.18
2023-01-25T15:26:31.210Z,4.26
2023-01-25T15:29:22.549Z,4.18
2023-01-25T15:32:18.299Z,4.16
2023-01-25T15:35:04.623Z,4.22
2023-01-25T15:37:49.678Z,4.29
2023-01-25T15:40:34.788Z,4.31
2023-01-25T15:43:19.928Z,4.38
2023-01-25T15:46:06.776Z,4.41
2023-01-25T15:48:52.358Z,4.42
2023-01-25T15:51:37.541Z,4.47
2023-01-25T15:54:24.285Z,4.40
2023-01-25T15:57:34.511Z,4.26
2023-01-25T16:00:23.041Z,4.34
2023-01-25T16:03:08.486Z,4.31
2023-01-25T16:05:58.101Z,4.31
2023-01-25T16:08:43.579Z,4.52
2023-01-25T16:11:28.654Z,4.45
2023-01-25T16:14:14.246Z,4.56
2023-01-25T16:17:05.523Z,4.55
2023-01-25T16:19:50.843Z,4.49
2023-01-25T16:22:35.911Z,4.48
2023-01-25T16:25:21.186Z,4.49
2023-01-25T16:28:13.677Z,4.35
2023-01-25T16:30:59.202Z,4.45
2023-01-25T16:33:44.895Z,4.33
2023-01-25T16:36:31.534Z,4.50
2023-01-25T16:39:22.134Z,4.37
2023-01-25T16:42:09.597Z,4.41
2023-01-25T16:44:54.887Z,4.71
2023-01-25T16:47:40.063Z,4.83
2023-01-25T16:50:25.121Z,4.75
2023-01-25T16:53:10.500Z,4.59
2023-01-25T16:55:55.506Z,4.68
2023-01-25T16:58:40.622Z,4.60
2023-01-25T17:01:26.136Z,4.43
2023-01-25T17:04:12.397Z,4.38
2023-01-25T17:06:58.843Z,4.35
2023-01-25T17:09:43.977Z,4.33
2023-01-25T17:12:29.714Z,4.47
2023-01-25T17:15:14.642Z,4.45
2023-01-25T17:17:59.787Z,4.39
2023-01-25T17:20:44.990Z,4.27
2023-01-25T17:23:36.045Z,4.22
2023-01-25T17:26:22.100Z,4.17
2023-01-25T17:29:07.215Z,4.13
2023-01-25T17:31:52.706Z,4.01
2023-01-25T17:34:37.809Z,4.13
2023-01-25T17:37:23.128Z,4.11
2023-01-25T17:40:10.358Z,4.25
2023-01-25T17:42:55.651Z,4.26
2023-01-25T17:45:40.595Z,4.30
2023-01-25T17:48:26.097Z,4.23
2023-01-25T17:51:11.157Z,4.29
2023-01-25T17:53:57.532Z,4.35
2023-01-25T17:56:42.781Z,4.35
2023-01-25T17:59:28.088Z,4.34
2023-01-25T18:02:13.036Z,4.36
2023-01-25T18:04:58.269Z,4.37
2023-01-25T18:07:45.187Z,4.34
2023-01-25T18:10:30.387Z,4.30
2023-01-25T18:13:15.305Z,4.26
2023-01-25T18:16:00.885Z,4.33
2023-01-25T18:18:47.290Z,4.28
2023-01-25T18:21:33.188Z,4.28
2023-01-25T18:24:23.533Z,4.29
2023-01-25T18:27:29.224Z,4.22
2023-01-25T18:30:29.740Z,4.26
2023-01-25T18:33:14.934Z,4.25
2023-01-25T18:36:02.792Z,4.27
2023-01-25T18:38:47.983Z,4.23
2023-01-25T18:41:33.204Z,4.19
2023-01-25T18:44:19.826Z,4.20
2023-01-25T18:47:05.255Z,4.17
2023-01-25T18:49:52.161Z,4.17
2023-01-25T18:52:37.481Z,4.05
2023-01-25T18:55:22.702Z,4.15
2023-01-25T18:58:12.207Z,4.23
2023-01-25T19:01:08.846Z,4.20
2023-01-25T19:03:53.700Z,4.19
2023-01-25T19:06:38.796Z,4.20
2023-01-25T19:09:25.002Z,4.18
2023-01-25T19:12:10.400Z,4.15
2023-01-25T19:14:55.559Z,4.13
2023-01-25T19:17:40.783Z,4.47
2023-01-25T19:20:27.552Z,4.46
2023-01-25T19:23:12.541Z,4.30
2023-01-25T19:25:57.696Z,4.29
2023-01-25T19:28:43.449Z,4.26
2023-01-25T19:31:32.064Z,4.20
2023-01-25T19:34:17.024Z,4.23
2023-01-25T19:37:02.001Z,4.27
2023-01-25T19:39:47.248Z,4.26
2023-01-25T19:42:32.717Z,4.20
2023-01-25T19:45:17.869Z,4.24
2023-01-25T19:48:05.426Z,4.23
2023-01-25T19:50:50.637Z,4.23
2023-01-25T19:53:35.914Z,4.20
2023-01-25T19:56:21.386Z,4.20
2023-01-25T19:59:10.328Z,4.23
2023-01-25T20:01:55.664Z,4.20
2023-01-25T20:04:40.903Z,4.22
2023-01-25T20:07:27.699Z,4.23
2023-01-25T20:10:13.022Z,4.19
2023-01-25T20:12:58.048Z,4.10
2023-01-25T20:15:47.444Z,4.23
2023-01-25T20:18:33.279Z,4.20
2023-01-25T20:21:23.537Z,4.22
2023-01-25T20:24:10.165Z,4.25
2023-01-25T20:26:58.719Z,4.28
2023-01-25T20:29:44.207Z,4.23
2023-01-25T20:32:33.138Z,4.35
2023-01-25T20:35:18.604Z,4.30
2023-01-25T20:38:03.929Z,4.46
2023-01-25T20:40:48.885Z,4.54
2023-01-25T20:43:34.303Z,4.52
2023-01-25T20:46:21.420Z,4.64
2023-01-25T20:49:09.555Z,4.72
2023-01-25T20:51:54.727Z,4.76
2023-01-25T20:54:41.583Z,4.77
2023-01-25T20:57:26.863Z,4.92
2023-01-25T21:00:12.300Z,4.95
2023-01-25T21:02:57.163Z,5.01
2023-01-25T21:06:00.345Z,5.02
2023-01-25T21:08:45.453Z,5.00
2023-01-25T21:11:31.172Z,5.12
2023-01-25T21:14:16.353Z,5.11
2023-01-25T21:17:01.559Z,5.14
2023-01-25T21:19:47.997Z,5.17
2023-01-25T21:22:33.769Z,5.19
2023-01-25T21:25:18.800Z,5.20
2023-01-25T21:28:04.286Z,5.29
2023-01-25T21:30:49.476Z,5.19
2023-01-25T21:33:35.000Z,5.34
2023-01-25T21:36:20.794Z,5.31
2023-01-25T21:39:06.284Z,5.33
2023-01-25T21:41:51.376Z,5.36
2023-01-25T21:44:55.162Z,5.39
2023-01-25T21:47:40.360Z,5.33
2023-01-25T21:50:44.527Z,5.34
2023-01-25T21:53:29.581Z,5.39
2023-01-25T21:56:14.505Z,5.41
2023-01-25T21:58:59.585Z,5.44
2023-01-25T22:01:45.442Z,5.47
2023-01-25T22:04:35.776Z,5.35
2023-01-25T22:07:21.183Z,5.46
2023-01-25T22:10:06.738Z,5.49
2023-01-25T22:12:51.935Z,5.50
2023-01-25T22:15:37.182Z,5.49
2023-01-25T22:18:22.153Z,5.52
2023-01-25T22:21:14.944Z,5.51
2023-01-25T22:24:02.016Z,5.50
2023-01-25T22:27:04.460Z,5.51
2023-01-25T22:29:49.468Z,5.52
2023-01-25T22:32:34.353Z,5.56
2023-01-25T22:35:19.641Z,5.57
2023-01-25T22:38:04.669Z,5.54
2023-01-25T22:40:49.676Z,5.56
2023-01-25T22:43:36.086Z,5.60
2023-01-25T22:46:23.870Z,5.64
2023-01-25T22:49:09.397Z,5.63
2023-01-25T22:51:54.548Z,5.61
2023-01-25T22:54:39.471Z,5.62
2023-01-25T22:57:24.727Z,5.54
2023-01-25T23:00:10.909Z,5.52
2023-01-25T23:02:56.147Z,5.62
2023-01-25T23:05:41.345Z,5.62
2023-01-25T23:08:28.611Z,5.63
2023-01-25T23:11:16.612Z,5.63
2023-01-25T23:14:21.458Z,5.66
2023-01-25T23:17:25.343Z,5.66
2023-01-25T23:20:12.933Z,5.69
2023-01-25T23:22:58.286Z,5.67
2023-01-25T23:25:46.124Z,5.71
2023-01-25T23:28:31.495Z,5.71
2023-01-25T23:31:17.769Z,5.54
2023-01-25T23:34:05.514Z,5.69
2023-01-25T23:36:50.793Z,5.71
2023-01-25T23:39:36.008Z,5.63
2023-01-25T23:42:21.244Z,5.70
2023-01-25T23:45:10.690Z,5.69
2023-01-25T23:47:55.740Z,5.56
2023-01-25T23:50:40.867Z,5.63
2023-01-25T23:53:27.138Z,5.57
2023-01-25T23:56:14.977Z,5.56
2023-01-25T23:58:59.859Z,5.43
